createdAt,value
2022-10-05T00:01:35.700Z,8.38
2022-10-05T00:06:37.377Z,8.29
2022-10-05T00:11:39.027Z,8.39
2022-10-05T00:16:40.685Z,8.32
2022-10-05T00:21:42.396Z,8.31
2022-10-05T00:26:44.363Z,8.51
2022-10-05T00:31:46.427Z,8.62
2022-10-05T00:36:48.474Z,8.65
2022-10-05T00:42:11.181Z,8.60
2022-10-05T00:47:15.689Z,8.72
2022-10-05T00:52:50.163Z,8.67
2022-10-05T00:58:28.761Z,8.61
2022-10-05T01:03:46.512Z,8.66
2022-10-05T01:08:51.198Z,8.67
2022-10-05T01:14:04.913Z,8.77
2022-10-05T01:19:20.202Z,8.69
2022-10-05T01:24:30.973Z,8.69
2022-10-05T01:29:41.462Z,8.56
2022-10-05T01:35:07.995Z,8.43
2022-10-05T01:40:48.101Z,8.42
2022-10-05T01:45:58.585Z,8.30
2022-10-05T01:51:18.956Z,8.28
2022-10-05T01:56:29.541Z,8.39
2022-10-05T02:01:55.588Z,8.56
2022-10-05T02:06:58.774Z,8.40
2022-10-05T02:12:08.160Z,8.33
2022-10-05T02:17:35.332Z,8.48
2022-10-05T02:22:46.496Z,8.62
2022-10-05T02:27:55.541Z,8.70
2022-10-05T02:33:29.875Z,8.55
2022-10-05T02:39:05.465Z,8.45
2022-10-05T02:44:16.787Z,8.33
2022-10-05T02:49:49.291Z,8.41
2022-10-05T02:55:20.828Z,8.51
2022-10-05T03:00:25.609Z,8.66
2022-10-05T03:05:54.057Z,8.50
2022-10-05T03:11:04.902Z,8.26
2022-10-05T03:16:24.800Z,8.17
2022-10-05T03:21:45.132Z,8.30
2022-10-05T03:26:58.946Z,8.27
2022-10-05T03:32:09.679Z,8.18
2022-10-05T03:37:21.352Z,8.12
2022-10-05T03:42:41.589Z,8.13
2022-10-05T03:48:16.647Z,8.18
2022-10-05T03:53:22.100Z,8.26
2022-10-05T03:58:41.227Z,8.26
2022-10-05T04:03:57.255Z,8.24
2022-10-05T04:09:31.811Z,8.13
2022-10-05T04:14:46.748Z,8.21
2022-10-05T04:19:59.128Z,8.30
2022-10-05T04:25:14.753Z,8.35
2022-10-05T04:30:20.453Z,8.24
2022-10-05T04:35:30.861Z,8.29
2022-10-05T04:40:50.201Z,8.07
2022-10-05T04:46:10.127Z,7.96
2022-10-05T04:51:29.796Z,8.10
2022-10-05T04:56:39.028Z,8.16
2022-10-05T05:02:16.274Z,8.02
2022-10-05T05:07:36.643Z,7.96
2022-10-05T05:13:16.630Z,7.92
2022-10-05T05:18:39.801Z,7.88
2022-10-05T05:23:49.937Z,8.01
2022-10-05T05:29:05.864Z,8.03
2022-10-05T05:34:29.110Z,8.03
2022-10-05T05:39:52.601Z,8.11
2022-10-05T05:44:58.002Z,8.25
2022-10-05T05:50:32.414Z,8.27
2022-10-05T05:55:45.007Z,8.48
2022-10-05T06:00:52.634Z,8.58
2022-10-05T06:06:01.807Z,8.63
2022-10-05T06:11:11.261Z,8.77
2022-10-05T06:16:12.929Z,8.77
2022-10-05T06:21:25.339Z,8.87
2022-10-05T06:26:49.069Z,8.82
2022-10-05T06:32:06.148Z,8.80
2022-10-05T06:37:17.941Z,8.94
2022-10-05T06:42:19.625Z,9.14
2022-10-05T06:47:35.034Z,9.35
2022-10-05T06:52:58.251Z,9.49
2022-10-05T06:58:37.665Z,9.43
2022-10-05T07:04:07.463Z,9.51
2022-10-05T07:09:14.966Z,9.60
2022-10-05T07:14:52.118Z,9.86
2022-10-05T07:20:15.261Z,10.15
2022-10-05T07:25:38.559Z,10.28
2022-10-05T07:31:09.760Z,10.52
2022-10-05T07:37:08.665Z,10.63
2022-10-05T07:42:19.321Z,10.80
2022-10-05T07:47:50.040Z,10.76
2022-10-05T07:53:21.999Z,11.39
2022-10-05T07:59:06.192Z,11.88
2022-10-05T08:04:35.203Z,11.98
2022-10-05T08:10:31.995Z,12.19
2022-10-05T08:16:18.630Z,12.39
2022-10-05T08:22:18.919Z,12.45
2022-10-05T08:27:26.625Z,12.58
2022-10-05T08:32:34.967Z,12.47
2022-10-05T08:37:41.580Z,12.56
2022-10-05T08:43:08.942Z,12.66
2022-10-05T08:48:38.585Z,12.87
2022-10-05T08:54:07.692Z,13.05
2022-10-05T08:59:15.433Z,13.30
2022-10-05T09:04:39.982Z,13.54
2022-10-05T09:10:11.726Z,13.82
2022-10-05T09:15:32.124Z,13.91
2022-10-05T09:20:50.986Z,14.33
2022-10-05T09:26:27.667Z,14.50
2022-10-05T09:31:47.455Z,14.84
2022-10-05T09:36:55.439Z,15.17
2022-10-05T09:42:44.685Z,15.55
2022-10-05T09:48:05.078Z,15.50
2022-10-05T09:53:40.934Z,15.62
2022-10-05T09:59:08.628Z,15.96
2022-10-05T10:04:26.867Z,16.05
2022-10-05T10:09:52.740Z,16.65
2022-10-05T10:15:28.446Z,16.98
2022-10-05T10:21:05.579Z,17.22
2022-10-05T10:26:19.029Z,17.37
2022-10-05T10:31:35.842Z,17.30
2022-10-05T10:37:13.961Z,17.29
2022-10-05T10:42:34.411Z,17.58
2022-10-05T10:47:36.094Z,17.57
2022-10-05T10:52:56.246Z,17.75
2022-10-05T10:58:35.029Z,17.58
2022-10-05T11:04:13.829Z,17.55
2022-10-05T11:09:25.821Z,17.62
2022-10-05T11:14:45.643Z,17.65
2022-10-05T11:20:04.158Z,17.79
2022-10-05T11:25:37.922Z,17.99
2022-10-05T11:31:02.503Z,18.12
2022-10-05T11:36:25.859Z,18.12
2022-10-05T11:41:45.725Z,18.13
2022-10-05T11:47:04.714Z,18.27
2022-10-05T11:52:13.107Z,18.51
2022-10-05T11:57:20.042Z,18.70
2022-10-05T12:02:55.473Z,18.80
2022-10-05T12:08:09.071Z,19.11
2022-10-05T12:13:53.498Z,19.36
2022-10-05T12:19:17.691Z,19.20
2022-10-05T12:24:26.836Z,19.39
2022-10-05T12:29:53.669Z,19.46
2022-10-05T12:35:11.674Z,19.50
2022-10-05T12:40:23.680Z,19.51
2022-10-05T12:45:43.418Z,19.48
2022-10-05T12:50:56.827Z,19.58
2022-10-05T12:56:09.420Z,19.71
2022-10-05T13:01:43.144Z,19.83
2022-10-05T13:07:22.916Z,19.84
2022-10-05T13:12:36.049Z,19.99
2022-10-05T13:17:50.063Z,20.04
2022-10-05T13:23:14.895Z,20.18
2022-10-05T13:28:23.225Z,20.09
2022-10-05T13:33:33.391Z,20.19
2022-10-05T13:39:13.425Z,20.13
2022-10-05T13:44:35.262Z,20.22
2022-10-05T13:50:02.314Z,20.29
2022-10-05T13:55:19.235Z,20.30
2022-10-05T14:00:26.257Z,20.17
2022-10-05T14:05:30.772Z,20.15
2022-10-05T14:10:39.023Z,20.23
2022-10-05T14:15:42.424Z,20.24
2022-10-05T14:21:01.729Z,20.22
2022-10-05T14:26:04.419Z,20.22
2022-10-05T14:31:14.976Z,20.12
2022-10-05T14:36:35.081Z,20.02
2022-10-05T14:41:37.613Z,20.09
2022-10-05T14:46:52.102Z,20.16
2022-10-05T14:51:55.850Z,20.17
2022-10-05T14:57:06.817Z,20.12
2022-10-05T15:02:45.313Z,19.84
2022-10-05T15:07:51.374Z,19.83
2022-10-05T15:12:55.668Z,19.71
2022-10-05T15:18:15.469Z,19.67
2022-10-05T15:23:35.329Z,19.58
2022-10-05T15:28:41.694Z,19.60
2022-10-05T15:34:12.433Z,19.45
2022-10-05T15:39:20.001Z,19.43
2022-10-05T15:44:52.342Z,19.25
2022-10-05T15:50:21.203Z,19.26
2022-10-05T15:55:35.386Z,19.07
2022-10-05T16:00:48.004Z,18.96
2022-10-05T16:06:37.613Z,18.86
2022-10-05T16:12:01.538Z,18.72
2022-10-05T16:17:05.765Z,18.70
2022-10-05T16:22:33.540Z,18.54
2022-10-05T16:27:35.147Z,18.47
2022-10-05T16:32:43.204Z,18.30
2022-10-05T16:37:57.764Z,18.17
2022-10-05T16:43:21.092Z,17.93
2022-10-05T16:48:26.254Z,17.75
2022-10-05T16:53:37.816Z,17.56
2022-10-05T16:58:45.238Z,17.35
2022-10-05T17:04:16.564Z,17.14
2022-10-05T17:09:53.499Z,16.99
2022-10-05T17:15:10.114Z,16.85
2022-10-05T17:20:50.979Z,16.70
2022-10-05T17:26:32.794Z,16.56
2022-10-05T17:32:09.914Z,16.37
2022-10-05T17:37:32.057Z,16.20
2022-10-05T17:42:34.285Z,16.09
2022-10-05T17:47:54.470Z,15.90
2022-10-05T17:53:53.554Z,15.76
2022-10-05T17:58:58.902Z,15.70
2022-10-05T18:04:12.422Z,15.62
2022-10-05T18:09:14.009Z,15.60
2022-10-05T18:14:19.704Z,15.60
2022-10-05T18:19:22.784Z,15.58
2022-10-05T18:24:38.934Z,15.45
2022-10-05T18:30:13.881Z,15.37
2022-10-05T18:35:33.434Z,15.33
2022-10-05T18:40:41.122Z,15.34
2022-10-05T18:46:23.272Z,15.26
2022-10-05T18:51:35.863Z,15.30
2022-10-05T18:56:51.854Z,15.23
2022-10-05T19:02:11.045Z,15.16
2022-10-05T19:07:48.216Z,15.07
2022-10-05T19:13:14.857Z,15.10
2022-10-05T19:18:39.868Z,15.10
2022-10-05T19:24:11.070Z,15.07
2022-10-05T19:29:12.522Z,14.66
2022-10-05T19:34:19.985Z,15.00
2022-10-05T19:39:50.641Z,14.91
2022-10-05T19:45:38.963Z,14.83
2022-10-05T19:50:53.668Z,14.88
2022-10-05T19:55:55.762Z,14.80
2022-10-05T20:01:01.159Z,14.64
2022-10-05T20:06:07.513Z,14.50
2022-10-05T20:11:11.968Z,14.39
2022-10-05T20:16:35.360Z,14.40
2022-10-05T20:21:38.124Z,14.27
2022-10-05T20:27:06.681Z,14.21
2022-10-05T20:32:14.237Z,14.11
2022-10-05T20:37:18.189Z,14.09
2022-10-05T20:42:20.993Z,14.08
2022-10-05T20:47:23.178Z,14.03
2022-10-05T20:52:24.768Z,13.94
2022-10-05T20:57:26.703Z,13.88
2022-10-05T21:02:28.757Z,13.82
2022-10-05T21:07:30.389Z,13.89
2022-10-05T21:12:34.000Z,14.07
2022-10-05T21:17:38.124Z,14.02
2022-10-05T21:22:39.711Z,13.98
2022-10-05T21:27:41.354Z,14.11
2022-10-05T21:32:44.683Z,14.32
2022-10-05T21:37:46.595Z,14.47
2022-10-05T21:42:48.162Z,14.65
2022-10-05T21:47:50.053Z,14.82
2022-10-05T21:52:51.996Z,14.94
2022-10-05T21:57:56.825Z,14.94
2022-10-05T22:02:58.441Z,15.01
2022-10-05T22:08:00.302Z,15.10
2022-10-05T22:13:04.678Z,15.29
2022-10-05T22:18:06.370Z,15.51
2022-10-05T22:23:07.957Z,15.55
2022-10-05T22:28:13.553Z,15.54
2022-10-05T22:33:15.219Z,15.58
2022-10-05T22:38:16.824Z,15.67
2022-10-05T22:43:18.453Z,15.84
2022-10-05T22:48:20.077Z,15.95
2022-10-05T22:53:21.659Z,16.05
2022-10-05T22:58:23.377Z,16.08
2022-10-05T23:03:25.153Z,16.10
2022-10-05T23:08:27.252Z,16.17
2022-10-05T23:13:29.631Z,16.13
2022-10-05T23:18:31.897Z,16.13
2022-10-05T23:23:36.265Z,16.13
2022-10-05T23:28:40.281Z,16.07
2022-10-05T23:33:42.085Z,15.81
2022-10-05T23:38:44.476Z,15.66
2022-10-05T23:43:46.693Z,15.53
2022-10-05T23:48:50.361Z,15.50
2022-10-05T23:53:52.013Z,15.49
2022-10-05T23:58:53.636Z,15.57
